Jemez Springs, Valles Caldera, New Mexico Weather observations

Data are for 10 minute period ending at time listed.
 Day   Time   Solar   Ave.   Ave.  Ave.  Vector  Max.   Baro.   Total    
  of    of     Rad.   Air    Rel.  Wind   Wind   Wind  Press.  Precip.   
Year   Day            Temp.  Hum.  Speed  Dir.   Gust                    
2014   (MST)  Kw/m2    F      %     mph   deg.    mph    mb.     in.     
-------------------------------------------------------------------------
 105   15:30   0.67   62.7    11    4.8    22    10.2   804.9    0.00 
 105   15:40   0.58   63.0    11    8.5    15    15.5   804.6    0.00 
 105   15:50   0.59   64.3    11    4.6    81     9.0   804.4    0.00 
 105   16:00   0.42   63.7    11    4.9    36    11.9   804.2    0.00 
 105   16:10   0.43   63.1    11    4.5    23    11.7   804.1    0.01 
 105   16:20   0.40   63.2    11    7.1   195    13.7   803.9    0.00 
 105   16:30   0.40   63.7    10    4.7     8     9.6   803.9    0.00 
 105   16:40   0.24   63.4    10    4.8   353     9.0   803.8    0.00 
 105   16:50   0.27   62.6    11    6.0    25    14.3   803.8    0.00 
 105   17:00   0.15   62.9    11    5.8    24    10.2   803.8    0.00 
 105   17:10   0.10   61.6    11    6.9    25    12.5   803.7    0.00 
 105   17:20   0.10   61.2    11    4.9    25    10.2   803.8    0.00 
 105   17:30   0.09   60.8    11    4.7    50     9.6   803.8    0.00 
 105   17:40   0.08   60.5    11    3.2    41     7.8   803.7    0.00 
 105   17:50   0.07   60.3    11    4.7    52     9.0   803.6    0.00 
 105   18:00   0.07   60.1    12    1.8   310     4.2   803.6    0.00 
 105   18:10   0.04   59.0    14    0.1   265     1.8   803.6    0.00 
 105   18:20   0.03   57.3    16    1.2   255     3.6   803.6    0.00 
 105   18:30   0.02   55.9    17    2.1   288     4.8   803.6    0.00 
 105   18:40   0.01   54.8    19    1.6   112     3.0   803.7    0.00 
 105   18:50   0.00   53.1    20    0.6   116     3.6   803.7    0.00 
 105   19:00   0.00   51.0    24    1.4   133     4.2   803.8    0.00 
 105   19:10   0.00   49.1    26    1.3    59     3.6   803.9    0.00 
 105   19:20   0.00   47.9    28    0.6    24     1.8   804.0    0.00 
 105   19:30   0.00   46.5    30    0.6    26     3.0   804.1    0.00 
 105   19:40   0.00   45.6    29    2.1    28     3.6   804.2    0.00 
 105   19:50   0.00   45.1    30    1.6    25     4.2   804.2    0.00 
 105   20:00   0.00   45.1    29    2.5    36     6.6   804.4    0.00 
 105   20:10   0.00   45.2    29    3.9    40     6.6   804.4    0.00 
 105   20:20   0.00   44.7    29    3.3    27     7.8   804.4    0.00 
 105   20:30   0.00   44.7    29    6.3    26    10.8   804.5    0.00 
 105   20:40   0.00   44.9    28    7.1    23    11.3   804.6    0.00 
 105   20:50   0.00   44.5    28    6.7    24    11.9   804.6    0.00 
 105   21:00   0.00   44.5    28    6.0    21    11.9   804.6    0.00 
 105   21:10   0.00   43.9    28    7.0    17    11.3   804.7    0.00 
 105   21:20   0.00   43.7    28    7.1    20    11.9   804.8    0.00 
 105   21:30   0.00   43.0    29    6.9    29    11.3   804.9    0.00 
 105   21:40   0.00   42.9    29    6.3    14    11.9   804.8    0.00 
 105   21:50   0.00   42.8    28    7.1    10    12.5   804.6    0.00 
 105   22:00   0.00   42.1    29    6.9    11    13.1   804.7    0.00 
 105   22:10   0.00   41.7    30    7.3    19    13.1   804.6    0.00 
 105   22:20   0.00   41.7    30    6.8    18    12.5   804.6    0.00 
 105   22:30   0.00   40.9    31    5.4    11    10.2   804.4    0.00 
 105   22:40   0.00   40.4    32    6.4    10    10.8   804.3    0.00 
 105   22:50   0.00   40.3    32    6.6    12    13.7   804.2    0.00 
 105   23:00   0.00   40.2    32    6.5    13    12.5   804.2    0.00 
 105   23:10   0.00   39.9    32    7.5    14    12.5   804.2    0.00 
 105   23:20   0.00   39.8    32    6.1     3    14.9   804.2    0.00 
 105   23:30   0.00   39.8    32    6.2     7    11.9   804.2    0.00 
 105   23:40   0.00   39.9    32    7.3    20    13.1   804.2    0.00 
 105   23:50   0.00   39.6    33    6.2    19    13.7   804.3    0.00 
 106    0:00   0.00   39.3    33    5.6     4    11.1   804.3    0.00 
 106    0:10   0.00   39.1    33    5.1     1    10.2   804.2    0.00 
 106    0:20   0.00   38.9    33    4.9   351    10.2   804.1    0.00 
 106    0:30   0.00   38.7    34    6.1     1    11.9   804.0    0.00 
 106    0:40   0.00   38.4    34    5.7    10     9.6   804.0    0.00 
 106    0:50   0.00   38.0    35    5.9     7    11.3   803.9    0.00 
 106    1:00   0.00   38.0    35    6.7    14    10.8   803.8    0.00 
 106    1:10   0.00   37.8    35    5.8    17    10.8   803.8    0.00 
 106    1:20   0.00   37.8    35    5.8     4     9.6   803.8    0.00 
 106    1:30   0.00   38.0    34    5.7   353    13.1   803.6    0.00 
 106    1:40   0.00   37.9    34    5.9   358    10.8   803.5    0.00 
 106    1:50   0.00   37.6    34    7.1     3    11.9   803.5    0.00 
 106    2:00   0.00   37.5    34    5.6     4     9.6   803.5    0.00 
 106    2:10   0.00   37.2    34    4.9     7     8.4   803.5    0.00 
 106    2:20   0.00   37.0    34    5.6     8    11.3   803.5    0.00 
 106    2:30   0.00   36.7    35    6.2    15    11.3   803.5    0.00 
 106    2:40   0.00   36.4    36    5.8    17    10.8   803.5    0.00 
 106    2:50   0.00   36.1    36    7.8    18    13.1   803.4    0.00 
 106    3:00   0.00   36.3    35    8.4    10    14.9   803.3    0.00 
 106    3:10   0.00   36.2    35    7.5    20    13.1   803.3    0.00 
 106    3:20   0.00   36.0    35    8.2    24    13.1   803.3    0.00 
 106    3:30   0.00   36.3    34    8.0    22    13.7   803.3    0.00 
 106    3:40   0.00   35.8    35    7.8    26    15.5   803.2    0.00 
 106    3:50   0.00   35.8    35    7.0    28    13.1   803.0    0.00 
 106    4:00   0.00   36.0    34    7.3    24    14.9   802.9    0.00 
 106    4:10   0.00   36.7    33    6.8    19    13.1   802.9    0.00 
 106    4:20   0.00   36.5    33    6.3     8    14.3   802.9    0.00 
 106    4:30   0.00   36.3    33    6.0    16    11.7   802.9    0.00 
 106    4:40   0.00   36.2    33    6.4    17    11.9   802.9    0.00 
 106    4:50   0.00   36.8    32    7.0     8    10.5   803.1    0.00 
 106    5:00   0.00   36.3    33    5.1     6     9.6   803.1    0.00 
 106    5:10   0.00   35.8    34    5.6     6    10.8   803.1    0.00 
 106    5:20   0.00   35.8    34    6.5     4    12.5   803.1    0.00 
 106    5:30   0.00   35.8    34    5.9    17    11.3   803.1    0.00 
 106    5:40   0.00   35.5    34    6.7     8    14.9   803.2    0.00 
 106    5:50   0.01   35.5    34    7.9    19    13.7   803.2    0.00 
 106    6:00   0.01   35.3    35    6.0    12    12.5   803.2    0.00 
 106    6:10   0.02   35.7    34    6.8    17    13.1   803.2    0.00 
 106    6:20   0.02   35.7    35    5.6    24    11.3   803.4    0.00 
 106    6:30   0.02   35.8    34    6.5    29    11.9   803.5    0.00 
 106    6:40   0.03   36.0    34    7.0    32    12.5   803.5    0.00 
 106    6:50   0.11   36.8    34    6.7    20    12.5   803.5    0.00 
 106    7:00   0.28   38.7    32    7.7    26    12.5   803.6    0.00 
 106    7:10   0.32   40.1    30    8.6    24    13.1   803.6    0.00 
 106    7:20   0.36   41.8    29    8.8    18    13.1   803.5    0.00 
 106    7:30   0.40   44.0    28    6.8    32    11.9   803.5    0.00 
 106    7:40   0.44   46.3    26    5.7    28     9.6   803.5    0.00 
 106    7:50   0.48   48.0    24    7.0    30    11.9   803.4    0.00 
 106    8:00   0.52   50.4    22    5.0    39     9.6   803.4    0.00 
 106    8:10   0.56   53.7    20    3.3    55     6.6   803.4    0.00 
 106    8:20   0.59   55.0    17    4.7   162     7.2   803.4    0.00 
 106    8:30   0.63   56.1    16    6.5   173     9.0   803.4    0.00 
 106    8:40   0.66   57.7    15    6.4   174    10.2   803.3    0.00 
 106    8:50   0.70   58.4    14    6.3   156     9.6   803.2    0.00 
 106    9:00   0.73   58.2    14    7.3   191    10.2   803.2    0.00 
 106    9:10   0.76   58.7    14    8.1   186    12.5   803.1    0.00 
 106    9:20   0.79   58.9    14    8.2   185    11.3   803.1    0.00 
 106    9:30   0.81   59.7    14    7.8   182    11.9   803.1    0.00 
 106    9:40   0.84   60.2    13    7.4   186    11.9   803.0    0.00 
 106    9:50   0.86   60.6    13    8.5   178    11.9   803.0    0.00 
 106   10:00   0.89   61.9    13    7.0   184    11.9   802.9    0.00 
 106   10:10   0.91   63.4    12    6.3   181     9.6   802.8    0.00 
 106   10:20   0.92   63.5    12    6.3   162    12.5   802.7    0.00 
 106   10:30   0.95   65.3    12    4.4    91     9.0   802.6    0.00 
 106   10:40   0.97   66.4    12    3.8   190     9.0   802.4    0.00 
 106   10:50   0.99   66.3    11    4.6   342    17.3   802.3    0.00 
 106   11:00   1.01   65.5    11    7.6   189    17.3   802.2    0.00 
 106   11:10   0.81   65.4    11    6.4   344    11.3   802.2    0.00 
 106   11:20   1.19   66.1    11    7.9    34    16.7   802.1    0.00 
 106   11:30   1.02   66.1    11    6.6    20    17.9   802.1    0.00 
 106   11:40   1.08   67.6    11    5.3   166    11.3   801.9    0.00 
 106   11:50   0.96   67.4    11    7.7   129    17.3   801.6    0.00 
 106   12:00   0.89   66.6    11    5.7   154    13.7   801.6    0.00 
 106   12:10   0.85   66.9    10   10.6   227    20.9   801.6    0.00 
 106   12:20   0.41   66.6    11    6.8   346    15.5   801.5    0.01 
 106   12:30   0.52   64.9    11    6.4    87    17.9   801.5    0.00 
 106   12:40   0.86   66.3    11    9.3    21    17.9   801.4    0.00 
 106   12:50   0.67   66.9    11    5.4   138    13.1   801.4    0.00 
 106   13:00   0.62   66.2    11    5.2   164    13.1   801.4    0.00 
 106   13:10   0.75   66.4    11    5.6   108    14.9   801.4    0.00 
 106   13:20   0.79   65.7    11    9.3   136    21.5   801.4    0.00 
 106   13:30   0.55   66.3    11    9.4   224    32.2   801.3    0.00 
 106   13:40   0.71   67.0    10    6.1   143    20.3   801.1    0.00 
 106   13:50   0.64   66.5    10    9.0   179    19.7   801.1    0.00 
 106   14:00   0.51   66.6    10    7.7   126    18.5   801.0    0.00 
 106   14:10   0.58   66.2    10    8.4   148    17.3   800.8    0.01 
 106   14:20   0.69   66.9    10    5.9   160    15.5   800.7    0.00 
 106   14:30   0.45   67.1    10    7.2   164    20.9   800.5    0.00 
 106   14:40   0.61   67.4    10    5.4   340    10.2   800.7    0.00 
 106   14:50   0.49   66.5    11   10.5   168    20.9   800.5    0.00 
 106   15:00   0.57   66.9    10    7.8    88    20.3   800.5    0.00 
 106   15:10   0.68   66.8    10    8.0   224    18.5   800.5    0.00 
 106   15:20   0.66   67.7    10    6.7     8    16.7   800.4    0.00 

Return to Jemez Springs, Valles Caldera graphs page.


Western Regional Climate Center,wrcc@dri.edu